createdAt,value
2023-05-11T00:01:07.709Z,40.87
2023-05-11T00:03:39.443Z,41.12
2023-05-11T00:06:09.194Z,40.99
2023-05-11T00:08:38.903Z,41.19
2023-05-11T00:11:10.406Z,41.53
2023-05-11T00:13:39.745Z,41.63
2023-05-11T00:16:09.180Z,41.48
2023-05-11T00:18:45.734Z,41.59
2023-05-11T00:21:15.373Z,41.98
2023-05-11T00:23:51.247Z,41.81
2023-05-11T00:26:20.973Z,41.91
2023-05-11T00:28:50.681Z,42.24
2023-05-11T00:31:20.088Z,42.13
2023-05-11T00:33:51.676Z,42.71
2023-05-11T00:36:20.925Z,42.33
2023-05-11T00:38:50.245Z,42.80
2023-05-11T00:41:19.572Z,43.11
2023-05-11T00:43:49.426Z,43.01
2023-05-11T00:46:29.225Z,43.18
2023-05-11T00:49:01.091Z,42.88
2023-05-11T00:51:31.656Z,42.93
2023-05-11T00:54:02.246Z,42.80
2023-05-11T00:56:31.671Z,43.37
2023-05-11T00:59:01.397Z,43.29
2023-05-11T01:01:31.450Z,43.41
2023-05-11T01:04:02.806Z,43.64
2023-05-11T01:06:52.446Z,43.49
2023-05-11T01:09:37.563Z,43.32
2023-05-11T01:12:16.140Z,43.27
2023-05-11T01:17:39.281Z,43.79
2023-05-11T01:20:18.727Z,43.83
2023-05-11T01:23:09.956Z,44.19
2023-05-11T01:26:09.010Z,44.23
2023-05-11T01:29:07.438Z,43.87
2023-05-11T01:31:43.030Z,44.28
2023-05-11T01:34:22.732Z,43.83
2023-05-11T01:36:55.872Z,43.34
2023-05-11T01:39:30.848Z,43.50
2023-05-11T01:42:06.749Z,43.88
2023-05-11T01:44:44.611Z,44.99
2023-05-11T01:47:17.660Z,46.07
2023-05-11T01:49:47.813Z,44.20
2023-05-11T01:52:18.730Z,43.99
2023-05-11T01:54:50.499Z,43.28
2023-05-11T01:57:21.350Z,43.05
2023-05-11T01:59:57.180Z,45.24
2023-05-11T02:02:47.081Z,45.21
2023-05-11T02:05:20.300Z,44.00
2023-05-11T02:07:52.219Z,43.02
2023-05-11T02:10:34.102Z,45.71
2023-05-11T02:13:07.495Z,46.85
2023-05-11T02:15:46.650Z,47.89
2023-05-11T02:18:19.464Z,46.94
2023-05-11T02:21:02.394Z,47.73
2023-05-11T02:23:38.050Z,48.14
2023-05-11T02:26:10.310Z,49.42
2023-05-11T02:28:39.938Z,48.98
2023-05-11T02:31:14.663Z,50.75
2023-05-11T02:33:54.398Z,51.83
2023-05-11T02:36:25.712Z,50.91
2023-05-11T02:39:07.721Z,51.54
2023-05-11T02:41:43.010Z,51.88
2023-05-11T02:44:26.428Z,49.78
2023-05-11T02:46:58.153Z,48.44
2023-05-11T02:49:31.558Z,47.47
2023-05-11T02:52:03.489Z,47.00
2023-05-11T02:54:36.377Z,47.33
2023-05-11T02:57:12.775Z,46.92
2023-05-11T02:59:53.924Z,47.10
2023-05-11T03:02:24.119Z,46.76
2023-05-11T03:04:55.550Z,47.47
2023-05-11T03:07:30.508Z,47.58
2023-05-11T03:10:00.043Z,47.57
2023-05-11T03:12:32.711Z,47.76
2023-05-11T03:15:02.626Z,47.35
2023-05-11T03:17:37.554Z,47.64
2023-05-11T03:20:10.734Z,46.66
2023-05-11T03:25:28.817Z,47.84
2023-05-11T03:28:05.517Z,47.52
2023-05-11T03:30:37.097Z,47.60
2023-05-11T03:33:06.675Z,46.79
2023-05-11T03:35:39.727Z,47.18
2023-05-11T03:38:10.975Z,46.99
2023-05-11T03:40:43.495Z,47.07
2023-05-11T03:43:17.208Z,46.51
2023-05-11T03:45:50.505Z,46.20
2023-05-11T03:48:31.873Z,46.32
2023-05-11T03:51:03.634Z,45.94
2023-05-11T03:53:38.430Z,46.05
2023-05-11T03:56:08.844Z,45.84
2023-05-11T03:58:46.293Z,46.08
2023-05-11T04:01:22.464Z,45.90
2023-05-11T04:03:53.110Z,45.35
2023-05-11T04:06:27.231Z,45.67
2023-05-11T04:09:15.159Z,45.43
2023-05-11T04:11:44.764Z,45.43
2023-05-11T04:14:13.969Z,45.58
2023-05-11T04:16:44.721Z,45.14
2023-05-11T04:19:19.702Z,45.04
2023-05-11T04:24:26.334Z,44.37
2023-05-11T04:27:00.217Z,44.55
2023-05-11T04:29:34.761Z,44.87
2023-05-11T04:32:04.727Z,45.13
2023-05-11T04:34:34.685Z,45.40
2023-05-11T04:37:07.823Z,45.71
2023-05-11T04:39:45.233Z,45.76
2023-05-11T04:42:14.878Z,45.76
2023-05-11T04:44:45.888Z,45.60
2023-05-11T04:47:21.363Z,45.72
2023-05-11T04:49:51.794Z,45.45
2023-05-11T04:52:23.693Z,45.82
2023-05-11T04:54:53.273Z,45.66
2023-05-11T04:57:22.560Z,45.75
2023-05-11T04:59:52.357Z,45.29
2023-05-11T05:02:21.861Z,44.77
2023-05-11T05:04:51.511Z,44.64
2023-05-11T05:07:22.749Z,44.07
2023-05-11T05:09:57.848Z,43.21
2023-05-11T05:15:12.284Z,43.73
2023-05-11T05:17:47.888Z,44.24
2023-05-11T05:20:23.468Z,44.64
2023-05-11T05:22:55.000Z,44.47
2023-05-11T05:25:24.556Z,45.12
2023-05-11T05:28:00.164Z,44.50
2023-05-11T05:30:30.033Z,44.98
2023-05-11T05:32:59.764Z,45.04
2023-05-11T05:35:29.071Z,44.33
2023-05-11T05:38:09.413Z,43.48
2023-05-11T05:40:40.591Z,42.26
2023-05-11T05:43:11.603Z,40.66
2023-05-11T05:45:41.644Z,40.14
2023-05-11T05:48:12.167Z,39.59
2023-05-11T05:50:46.872Z,39.24
2023-05-11T05:53:19.991Z,40.08
2023-05-11T05:55:49.377Z,40.20
2023-05-11T05:58:18.638Z,40.15
2023-05-11T06:00:49.053Z,38.65
2023-05-11T06:03:18.828Z,38.33
2023-05-11T06:05:48.337Z,38.25
2023-05-11T06:08:26.422Z,37.52
2023-05-11T06:11:01.230Z,37.23
2023-05-11T06:13:31.028Z,36.92
2023-05-11T06:16:02.812Z,36.58
2023-05-11T06:18:41.004Z,35.79
2023-05-11T06:21:20.669Z,35.53
2023-05-11T06:23:52.269Z,35.26
2023-05-11T06:26:25.187Z,35.04
2023-05-11T06:31:44.016Z,34.90
2023-05-11T06:34:13.316Z,34.82
2023-05-11T06:37:01.038Z,34.76
2023-05-11T06:39:37.819Z,34.54
2023-05-11T06:42:10.201Z,34.35
2023-05-11T06:44:41.115Z,33.89
2023-05-11T06:47:22.798Z,33.99
2023-05-11T06:49:52.375Z,33.55
2023-05-11T06:52:21.650Z,32.87
2023-05-11T06:54:52.945Z,32.76
2023-05-11T06:57:27.512Z,32.49
2023-05-11T07:00:09.798Z,31.11
2023-05-11T07:02:39.886Z,31.34
2023-05-11T07:05:15.017Z,31.13
2023-05-11T07:07:45.065Z,31.97
2023-05-11T07:10:21.501Z,31.18
2023-05-11T07:12:51.366Z,31.10
2023-05-11T07:15:20.815Z,32.57
2023-05-11T07:17:55.411Z,32.85
2023-05-11T07:20:24.846Z,33.37
2023-05-11T07:23:00.545Z,32.75
2023-05-11T07:25:38.205Z,32.17
2023-05-11T07:28:07.573Z,32.01
2023-05-11T07:30:36.821Z,31.43
2023-05-11T07:33:16.775Z,31.66
2023-05-11T07:35:47.595Z,30.57
2023-05-11T07:38:23.757Z,30.61
2023-05-11T07:40:55.090Z,30.72
2023-05-11T07:43:24.408Z,30.79
2023-05-11T07:45:54.104Z,30.67
2023-05-11T07:48:24.153Z,30.58
2023-05-11T07:50:53.422Z,30.31
2023-05-11T07:53:22.765Z,30.48
2023-05-11T07:55:57.403Z,31.45
2023-05-11T07:58:28.895Z,31.72
2023-05-11T08:00:58.797Z,31.61
2023-05-11T08:03:28.299Z,31.78
2023-05-11T08:05:57.779Z,31.81
2023-05-11T08:08:47.152Z,31.41
2023-05-11T08:11:16.647Z,31.19
2023-05-11T08:16:27.947Z,29.94
2023-05-11T08:18:57.369Z,29.96
2023-05-11T08:21:33.064Z,30.13
2023-05-11T08:24:02.669Z,29.89
2023-05-11T08:26:47.746Z,30.37
2023-05-11T08:29:21.219Z,30.50
2023-05-11T08:31:55.668Z,30.33
2023-05-11T08:34:25.209Z,30.28
2023-05-11T08:36:55.758Z,30.64
2023-05-11T08:39:46.126Z,30.55
2023-05-11T08:45:02.497Z,29.96
2023-05-11T08:47:45.540Z,29.62
2023-05-11T08:50:15.345Z,29.74
2023-05-11T08:52:45.234Z,29.92
2023-05-11T08:55:41.067Z,30.11
2023-05-11T08:58:19.197Z,30.95
2023-05-11T09:00:51.460Z,31.25
2023-05-11T09:03:22.150Z,31.12
2023-05-11T09:05:52.367Z,31.08
2023-05-11T09:08:22.509Z,31.72
2023-05-11T09:10:52.104Z,31.64
2023-05-11T09:13:26.682Z,31.10
2023-05-11T09:16:03.333Z,30.71
2023-05-11T09:18:32.809Z,29.63
2023-05-11T09:23:39.323Z,28.74
2023-05-11T09:26:16.753Z,28.25
2023-05-11T09:29:02.415Z,28.40
2023-05-11T09:31:40.478Z,28.65
2023-05-11T09:34:23.117Z,29.59
2023-05-11T09:36:54.267Z,30.27
2023-05-11T09:39:38.261Z,30.54
2023-05-11T09:42:25.102Z,31.34
2023-05-11T09:44:59.627Z,31.47
2023-05-11T09:47:41.724Z,31.88
2023-05-11T09:52:55.760Z,31.52
2023-05-11T09:55:25.490Z,31.06
2023-05-11T09:57:59.873Z,30.56
2023-05-11T10:00:29.330Z,30.15
2023-05-11T10:03:05.481Z,30.24
2023-05-11T10:08:11.976Z,29.61
2023-05-11T10:13:17.086Z,28.28
2023-05-11T10:15:46.528Z,28.17
2023-05-11T10:18:20.118Z,28.24
2023-05-11T10:21:01.451Z,29.02
2023-05-11T10:23:38.456Z,30.00
2023-05-11T10:26:08.372Z,31.49
2023-05-11T10:28:37.946Z,32.13
2023-05-11T10:31:12.851Z,33.45
2023-05-11T10:33:47.261Z,35.87
2023-05-11T10:36:19.773Z,38.89
2023-05-11T10:38:49.520Z,40.31
2023-05-11T10:41:38.319Z,41.48
2023-05-11T10:44:43.809Z,44.14
2023-05-11T10:47:28.739Z,43.17
2023-05-11T10:50:18.510Z,41.13
2023-05-11T10:53:15.075Z,41.14
2023-05-11T10:56:05.866Z,40.98
2023-05-11T10:58:49.870Z,41.08
2023-05-11T11:01:44.091Z,41.94
2023-05-11T11:04:15.794Z,41.83
2023-05-11T11:07:07.547Z,42.17
2023-05-11T11:09:53.899Z,43.37
2023-05-11T11:12:26.562Z,43.43
2023-05-11T11:14:58.333Z,44.09
2023-05-11T11:17:30.891Z,42.95
2023-05-11T11:20:07.118Z,44.13
2023-05-11T11:22:48.816Z,45.20
2023-05-11T11:28:29.878Z,43.23
2023-05-11T11:31:26.624Z,42.39
2023-05-11T11:33:58.588Z,41.06
2023-05-11T11:36:58.472Z,39.73
2023-05-11T11:39:46.776Z,40.24
2023-05-11T11:42:17.342Z,40.65
2023-05-11T11:44:48.136Z,40.43
2023-05-11T11:47:19.508Z,40.39
2023-05-11T11:49:50.790Z,41.23
2023-05-11T11:52:40.680Z,41.42
2023-05-11T11:55:48.724Z,41.17
2023-05-11T11:58:48.195Z,40.73
2023-05-11T12:01:19.597Z,41.38
2023-05-11T12:04:01.238Z,40.60
2023-05-11T12:06:44.203Z,39.64
2023-05-11T12:09:18.778Z,39.76
2023-05-11T12:11:50.732Z,38.96
2023-05-11T12:14:25.690Z,39.32
2023-05-11T12:17:16.187Z,38.76
2023-05-11T12:19:46.673Z,37.65
2023-05-11T12:22:16.768Z,37.81
2023-05-11T12:24:46.344Z,38.07
2023-05-11T12:27:22.915Z,37.33
2023-05-11T12:29:56.330Z,38.07
2023-05-11T12:32:30.176Z,37.76
2023-05-11T12:35:01.132Z,37.88
2023-05-11T12:37:40.907Z,37.14
2023-05-11T12:40:15.896Z,36.59
2023-05-11T12:42:54.477Z,36.70
2023-05-11T12:51:56.240Z,38.75
2023-05-11T12:54:34.108Z,39.05
2023-05-11T12:57:05.197Z,38.70
2023-05-11T12:59:37.109Z,39.32
2023-05-11T13:02:21.163Z,39.64
2023-05-11T13:04:50.773Z,40.38
2023-05-11T13:07:30.365Z,40.11
2023-05-11T13:12:53.292Z,37.41
2023-05-11T13:15:30.637Z,37.23
2023-05-11T13:18:01.840Z,37.12
2023-05-11T13:20:38.029Z,37.56
2023-05-11T13:23:21.413Z,38.67
2023-05-11T13:25:55.152Z,39.39
2023-05-11T13:28:31.164Z,39.87
2023-05-11T13:31:05.532Z,38.53
2023-05-11T13:33:39.933Z,39.33
2023-05-11T13:36:09.769Z,39.94
2023-05-11T13:38:41.156Z,40.10
2023-05-11T13:41:10.542Z,40.07
2023-05-11T13:43:39.939Z,40.32
2023-05-11T13:46:14.706Z,40.84
2023-05-11T13:48:44.638Z,40.06
2023-05-11T13:51:13.902Z,40.58
2023-05-11T13:53:45.982Z,40.09
2023-05-11T13:56:19.377Z,40.25
2023-05-11T13:58:54.665Z,40.27
2023-05-11T14:01:23.959Z,40.42
2023-05-11T14:03:58.413Z,39.72
2023-05-11T14:06:28.204Z,40.14
2023-05-11T14:11:36.389Z,40.18
2023-05-11T14:14:07.454Z,40.62
2023-05-11T14:16:42.612Z,40.55
2023-05-11T14:19:17.998Z,40.91
2023-05-11T14:21:48.551Z,41.30
2023-05-11T14:24:20.191Z,41.18
2023-05-11T14:26:49.222Z,40.77
2023-05-11T14:29:18.453Z,40.16
2023-05-11T14:31:48.363Z,40.31
2023-05-11T14:34:22.830Z,40.40
2023-05-11T14:36:56.291Z,40.61
2023-05-11T14:39:27.558Z,41.03
2023-05-11T14:41:58.570Z,41.33
2023-05-11T14:47:05.040Z,41.52
2023-05-11T14:49:40.714Z,41.08
2023-05-11T14:52:10.411Z,41.51
2023-05-11T14:54:42.216Z,41.19
2023-05-11T14:57:23.075Z,41.50
2023-05-11T14:59:59.670Z,41.65
2023-05-11T15:02:30.494Z,41.86
2023-05-11T15:04:59.807Z,41.97
2023-05-11T15:07:29.052Z,42.27
2023-05-11T15:10:05.694Z,42.56
2023-05-11T15:12:34.869Z,42.39
2023-05-11T15:15:16.988Z,42.87
2023-05-11T15:17:46.538Z,42.88
2023-05-11T15:20:16.358Z,42.95
2023-05-11T15:22:51.186Z,42.88
2023-05-11T15:25:22.778Z,42.72
2023-05-11T15:27:57.774Z,42.94
2023-05-11T15:30:27.408Z,43.28
2023-05-11T15:32:57.099Z,43.20
2023-05-11T15:35:26.756Z,43.67
2023-05-11T15:37:56.124Z,43.94
2023-05-11T15:40:28.083Z,43.70
2023-05-11T15:42:58.810Z,43.75
2023-05-11T15:45:28.890Z,43.59
2023-05-11T15:47:58.404Z,43.79
2023-05-11T15:50:28.275Z,44.47
2023-05-11T15:52:58.117Z,44.57
2023-05-11T15:55:29.423Z,45.46
2023-05-11T15:58:08.066Z,45.63
2023-05-11T16:00:42.994Z,46.18
2023-05-11T16:05:53.812Z,45.96
2023-05-11T16:08:23.431Z,46.30
2023-05-11T16:10:54.723Z,45.79
2023-05-11T16:13:24.482Z,46.42
2023-05-11T16:15:59.122Z,44.93
2023-05-11T16:18:28.731Z,45.17
2023-05-11T16:20:58.079Z,45.77
2023-05-11T16:23:33.065Z,46.73
2023-05-11T16:26:09.487Z,47.77
2023-05-11T16:28:39.090Z,46.95
2023-05-11T16:31:11.225Z,47.87
2023-05-11T16:36:20.832Z,49.39
2023-05-11T16:38:50.191Z,50.20
2023-05-11T16:41:25.906Z,51.14
2023-05-11T16:43:55.323Z,51.94
2023-05-11T16:48:59.932Z,53.49
2023-05-11T16:51:29.520Z,54.62
2023-05-11T16:54:10.919Z,55.33
2023-05-11T16:56:42.531Z,56.11
2023-05-11T16:59:12.068Z,55.94
2023-05-11T17:01:41.696Z,56.44
2023-05-11T17:04:11.662Z,56.56
2023-05-11T17:06:41.090Z,57.48
2023-05-11T17:09:10.428Z,58.21
2023-05-11T17:11:46.668Z,58.94
2023-05-11T17:14:16.358Z,59.20
2023-05-11T17:16:51.077Z,60.47
2023-05-11T17:19:20.899Z,60.56
2023-05-11T17:21:50.269Z,60.79
2023-05-11T17:24:19.909Z,61.65
2023-05-11T17:26:51.326Z,62.72
2023-05-11T17:29:33.462Z,62.58
2023-05-11T17:32:10.041Z,63.20
2023-05-11T17:34:39.537Z,64.00
2023-05-11T17:37:17.366Z,64.34
2023-05-11T17:39:54.294Z,64.84
2023-05-11T17:42:25.796Z,65.70
2023-05-11T17:44:55.600Z,65.49
2023-05-11T17:47:35.038Z,67.37
2023-05-11T17:50:05.646Z,66.67
2023-05-11T17:52:35.436Z,67.23
2023-05-11T17:55:06.285Z,67.50
2023-05-11T17:57:48.089Z,69.63
2023-05-11T18:00:18.666Z,68.67
2023-05-11T18:02:53.466Z,69.26
2023-05-11T18:05:28.107Z,69.39
2023-05-11T18:08:03.784Z,69.53
2023-05-11T18:10:33.233Z,70.08
2023-05-11T18:13:11.419Z,71.47
2023-05-11T18:15:41.137Z,71.32
2023-05-11T18:18:11.765Z,71.92
2023-05-11T18:20:41.959Z,72.33
2023-05-11T18:23:11.958Z,72.42
2023-05-11T18:25:41.583Z,73.19
2023-05-11T18:28:14.260Z,74.48
2023-05-11T18:30:44.165Z,73.88
2023-05-11T18:33:13.470Z,73.93
2023-05-11T18:35:42.892Z,74.26
2023-05-11T18:38:12.407Z,74.73
2023-05-11T18:40:52.910Z,74.90
2023-05-11T18:43:24.924Z,76.13
2023-05-11T18:45:54.707Z,75.99
2023-05-11T18:48:24.469Z,76.58
2023-05-11T18:50:57.210Z,77.99
2023-05-11T18:53:26.924Z,77.48
2023-05-11T18:58:44.937Z,76.68
2023-05-11T19:01:15.016Z,75.05
2023-05-11T19:03:50.169Z,74.89
2023-05-11T19:06:24.683Z,75.43
2023-05-11T19:09:04.395Z,73.80
2023-05-11T19:11:35.192Z,73.63
2023-05-11T19:14:14.142Z,73.83
2023-05-11T19:16:43.669Z,72.61
2023-05-11T19:19:14.425Z,72.73
2023-05-11T19:21:45.195Z,72.80
2023-05-11T19:24:14.876Z,72.53
2023-05-11T19:26:49.644Z,72.13
2023-05-11T19:29:35.183Z,71.72
2023-05-11T19:32:05.209Z,71.42
2023-05-11T19:34:35.900Z,70.99
2023-05-11T19:37:15.912Z,69.66
2023-05-11T19:39:45.838Z,69.10
2023-05-11T19:42:15.834Z,68.65
2023-05-11T19:44:53.177Z,67.47
2023-05-11T19:47:22.650Z,67.61
2023-05-11T19:49:52.083Z,67.10
2023-05-11T19:52:26.702Z,67.25
2023-05-11T19:54:55.917Z,66.95
2023-05-11T19:57:30.046Z,66.30
2023-05-11T20:00:09.339Z,65.80
2023-05-11T20:02:39.247Z,65.60
2023-05-11T20:05:09.450Z,65.23
2023-05-11T20:07:39.237Z,65.30
2023-05-11T20:10:10.173Z,65.24
2023-05-11T20:12:40.112Z,65.51
2023-05-11T20:15:11.933Z,66.42
2023-05-11T20:17:41.499Z,66.15
2023-05-11T20:20:12.385Z,66.18
2023-05-11T20:22:47.690Z,64.60
2023-05-11T20:25:18.907Z,64.45
2023-05-11T20:27:49.454Z,64.77
2023-05-11T20:30:22.062Z,64.54
2023-05-11T20:35:34.924Z,64.39
2023-05-11T20:38:04.268Z,64.84
2023-05-11T20:40:33.736Z,65.18
2023-05-11T20:43:03.306Z,65.32
2023-05-11T20:45:34.589Z,65.27
2023-05-11T20:48:03.967Z,65.54
2023-05-11T20:50:33.528Z,65.58
2023-05-11T20:55:37.916Z,66.62
2023-05-11T20:58:07.242Z,66.94
2023-05-11T21:00:38.479Z,67.53
2023-05-11T21:03:08.209Z,67.45
2023-05-11T21:05:38.998Z,67.75
2023-05-11T21:08:08.325Z,68.38
2023-05-11T21:10:42.610Z,68.81
2023-05-11T21:13:12.904Z,68.91
2023-05-11T21:15:44.149Z,68.77
2023-05-11T21:18:13.633Z,69.05
2023-05-11T21:20:43.394Z,68.92
2023-05-11T21:23:13.898Z,69.28
2023-05-11T21:25:43.198Z,69.95
2023-05-11T21:28:22.684Z,70.03
2023-05-11T21:30:59.279Z,70.18
2023-05-11T21:33:28.873Z,70.48
2023-05-11T21:35:58.439Z,70.08
2023-05-11T21:38:28.000Z,70.35
2023-05-11T21:40:57.983Z,70.45
2023-05-11T21:43:27.382Z,70.27
2023-05-11T21:45:59.039Z,70.71
2023-05-11T21:48:28.410Z,70.13
2023-05-11T21:50:57.861Z,70.23
2023-05-11T21:53:27.368Z,70.38
2023-05-11T21:55:57.053Z,70.17
2023-05-11T21:58:32.346Z,70.76
2023-05-11T22:01:03.468Z,70.77
2023-05-11T22:06:18.200Z,70.87
2023-05-11T22:08:52.485Z,70.54
2023-05-11T22:11:22.276Z,70.65
2023-05-11T22:13:51.761Z,70.94
2023-05-11T22:16:27.326Z,71.75
2023-05-11T22:18:56.838Z,71.38
2023-05-11T22:21:27.541Z,71.65
2023-05-11T22:23:56.956Z,72.03
2023-05-11T22:26:36.271Z,72.58
2023-05-11T22:29:06.379Z,72.12
2023-05-11T22:31:38.276Z,72.72
2023-05-11T22:34:07.704Z,72.38
2023-05-11T22:36:37.053Z,72.10
2023-05-11T22:39:06.846Z,72.18
2023-05-11T22:41:36.111Z,72.53
2023-05-11T22:44:05.636Z,72.29
2023-05-11T22:46:42.005Z,72.87
2023-05-11T22:49:12.079Z,72.92
2023-05-11T22:51:41.540Z,72.96
2023-05-11T22:54:11.090Z,73.83
2023-05-11T22:56:40.354Z,73.82
2023-05-11T22:59:09.988Z,73.85
2023-05-11T23:01:39.345Z,73.80
2023-05-11T23:04:10.571Z,73.88
2023-05-11T23:06:50.070Z,73.40
2023-05-11T23:09:19.376Z,72.55
2023-05-11T23:11:48.653Z,71.71
2023-05-11T23:14:29.978Z,71.09
2023-05-11T23:16:59.454Z,70.63
2023-05-11T23:19:30.702Z,71.27
2023-05-11T23:24:35.821Z,70.57
2023-05-11T23:27:05.332Z,70.71
2023-05-11T23:29:35.026Z,70.81
2023-05-11T23:32:05.661Z,70.95
2023-05-11T23:34:37.675Z,71.67
2023-05-11T23:37:12.307Z,71.56
2023-05-11T23:39:41.694Z,71.76
2023-05-11T23:42:11.193Z,71.89
2023-05-11T23:44:47.382Z,71.78
2023-05-11T23:47:16.742Z,72.19
2023-05-11T23:49:48.080Z,72.29
2023-05-11T23:52:17.456Z,72.06
2023-05-11T23:54:52.278Z,72.06
2023-05-11T23:57:22.977Z,72.50
2023-05-11T23:59:57.308Z,72.68
